Time;durP1;ratioP1;P1;durP2;ratioP2;P2;SDS_P1;SDS_P2;PMS_P1;PMS_P2;Temp;Humidity;BMP_temperature;BMP_pressure;BME280_temperature;BME280_humidity;BME280_pressure;Samples;Min_cycle;Max_cycle;Signal;HPM_P1;HPM_P2
2023/01/05 00:00:05;;;;;;;23.97;22.87;;;11.20;99.90;;;;;;4978529;28;20183;-82
2023/01/05 00:02:30;;;;;;;17.47;16.63;;;11.10;99.90;;;;;;4995325;28;20233;-81
2023/01/05 00:04:56;;;;;;;8.50;8.20;;;11.10;99.90;;;;;;4995580;28;20207;-81
2023/01/05 00:07:22;;;;;;;4.90;4.80;;;11.00;99.90;;;;;;4994505;28;20664;-81
2023/01/05 00:09:48;;;;;;;3.87;3.77;;;11.00;99.90;;;;;;4995188;28;20211;-81
2023/01/05 00:23:11;;;;;;;20.17;19.27;;;11.20;99.90;;;;;;5014059;28;20211;-81
2023/01/05 00:25:39;;;;;;;12.90;12.23;;;11.30;99.90;;;;;;4983740;28;20599;-79
2023/01/05 00:28:05;;;;;;;4.80;4.70;;;11.30;99.90;;;;;;4975561;28;20252;-81
2023/01/05 00:30:35;;;;;;;3.67;3.57;;;11.40;99.90;;;;;;4976205;28;20176;-81
2023/01/05 00:33:00;;;;;;;3.90;3.80;;;11.40;99.90;;;;;;4979940;28;20241;-81
2023/01/05 00:35:28;;;;;;;4.17;4.07;;;11.40;99.90;;;;;;4997292;28;20284;-81
2023/01/05 00:37:54;;;;;;;3.87;3.77;;;11.50;99.90;;;;;;4978986;28;20275;-81
2023/01/05 00:40:21;;;;;;;4.17;4.07;;;11.50;99.90;;;;;;4996390;28;20314;-81
2023/01/05 00:42:47;;;;;;;4.03;3.83;;;11.50;99.90;;;;;;5028518;28;20186;-81
2023/01/05 00:45:15;;;;;;;4.17;4.07;;;11.50;99.90;;;;;;5028160;28;20267;-79
2023/01/05 00:47:42;;;;;;;5.17;5.03;;;11.50;99.90;;;;;;5005589;28;20587;-81
2023/01/05 00:50:11;;;;;;;6.20;6.00;;;11.50;99.90;;;;;;4998385;28;20242;-81
2023/01/05 00:52:37;;;;;;;5.90;5.70;;;11.50;99.90;;;;;;4998715;28;20549;-81
2023/01/05 00:55:03;;;;;;;6.10;5.90;;;11.50;99.90;;;;;;5022184;28;20208;-79
2023/01/05 00:57:29;;;;;;;9.23;8.90;;;11.60;99.90;;;;;;5006527;28;20605;-79
2023/01/05 00:59:54;;;;;;;10.33;9.93;;;11.50;99.90;;;;;;4979483;28;20243;-80
2023/01/05 01:02:20;;;;;;;10.80;10.40;;;11.60;99.90;;;;;;4996728;28;20795;-80
2023/01/05 01:04:46;;;;;;;16.40;15.67;;;11.50;99.90;;;;;;4979793;28;20191;-80
2023/01/05 01:07:12;;;;;;;18.87;18.10;;;11.50;99.90;;;;;;5008668;28;20191;-79
2023/01/05 01:09:39;;;;;;;23.93;22.90;;;11.60;99.90;;;;;;5019588;28;20246;-80
2023/01/05 01:12:05;;;;;;;25.33;24.20;;;11.60;99.90;;;;;;4998500;28;20183;-79
2023/01/05 01:14:30;;;;;;;30.87;29.50;;;11.60;99.90;;;;;;4998476;28;20182;-79
2023/01/05 01:16:56;;;;;;;31.33;29.93;;;11.60;99.90;;;;;;4997546;28;20243;-79
2023/01/05 01:19:24;;;;;;;31.33;29.93;;;11.60;99.90;;;;;;5015234;28;20229;-80
2023/01/05 01:21:50;;;;;;;25.67;24.53;;;11.60;99.90;;;;;;4989525;28;20271;-79
2023/01/05 01:24:25;;;;;;;27.67;26.40;;;11.60;99.90;;;;;;5014854;28;20184;-79
2023/01/05 01:26:52;;;;;;;24.20;23.13;;;11.60;99.90;;;;;;5003944;28;20307;-78
2023/01/05 01:29:18;;;;;;;28.07;26.80;;;11.60;99.90;;;;;;5001624;28;20617;-79
2023/01/05 01:31:46;;;;;;;23.47;22.50;;;11.60;99.90;;;;;;5015290;28;20649;-80
2023/01/05 01:34:12;;;;;;;21.40;20.47;;;11.60;99.90;;;;;;4998393;28;20999;-79
2023/01/05 01:36:38;;;;;;;17.00;16.27;;;11.60;99.90;;;;;;4980974;28;20204;-79
2023/01/05 01:39:04;;;;;;;15.43;14.83;;;11.60;99.90;;;;;;4977956;28;20189;-78
2023/01/05 01:41:30;;;;;;;14.50;13.90;;;11.60;99.90;;;;;;4978353;28;20192;-79
2023/01/05 01:43:57;;;;;;;13.90;13.33;;;11.60;99.90;;;;;;4977971;28;20187;-79
2023/01/05 01:46:24;;;;;;;18.43;17.67;;;11.60;99.90;;;;;;4978389;28;20204;-80
2023/01/05 01:49:16;;;;;;;21.90;20.97;;;11.60;99.90;;;;;;4997522;28;20203;-79
2023/01/05 01:51:45;;;;;;;22.73;21.77;;;11.60;99.90;;;;;;4991800;28;20192;-80
2023/01/05 01:54:14;;;;;;;18.37;17.60;;;11.60;99.90;;;;;;4983537;28;20187;-79
2023/01/05 01:56:50;;;;;;;15.97;15.33;;;11.60;99.90;;;;;;5013854;28;20203;-80
2023/01/05 01:59:16;;;;;;;16.27;15.60;;;11.60;99.90;;;;;;4978136;28;20662;-79
2023/01/05 02:01:42;;;;;;;12.80;12.30;;;11.60;99.90;;;;;;4995745;28;20219;-79
2023/01/05 02:04:10;;;;;;;15.13;14.53;;;11.60;99.90;;;;;;4993271;28;20188;-78
2023/01/05 02:06:36;;;;;;;18.43;17.63;;;11.60;99.90;;;;;;4997087;28;20209;-80
2023/01/05 02:09:04;;;;;;;21.90;20.97;;;11.60;99.90;;;;;;4997084;28;20207;-79
2023/01/05 02:11:44;;;;;;;18.53;17.77;;;11.60;99.90;;;;;;4997001;28;20180;-79
2023/01/05 02:14:22;;;;;;;17.20;16.50;;;11.60;99.90;;;;;;4997099;28;20180;-80
2023/01/05 02:16:50;;;;;;;12.63;12.13;;;11.60;99.90;;;;;;4996352;28;20207;-80
2023/01/05 02:19:54;;;;;;;11.77;11.37;;;11.60;99.90;;;;;;5014732;28;20193;-80
2023/01/05 02:22:32;;;;;;;10.07;9.67;;;11.60;99.90;;;;;;4911615;29;20214;-80
2023/01/05 02:25:19;;;;;;;16.00;15.30;;;11.60;99.90;;;;;;4900539;29;20270;-80
2023/01/05 02:27:52;;;;;;;12.40;11.90;;;11.60;99.90;;;;;;4966885;28;20197;-80
2023/01/05 02:30:42;;;;;;;11.63;11.23;;;11.60;99.90;;;;;;4996862;28;20190;-80
2023/01/05 02:33:27;;;;;;;7.60;7.37;;;11.60;99.90;;;;;;4997667;28;20194;-79
2023/01/05 02:36:22;;;;;;;6.70;6.40;;;11.60;99.90;;;;;;5010846;28;20207;-78
2023/01/05 02:39:10;;;;;;;5.57;5.43;;;11.60;99.90;;;;;;5012206;28;20227;-80
2023/01/05 02:41:57;;;;;;;3.50;3.40;;;11.60;99.90;;;;;;5014611;28;20667;-79
2023/01/05 02:44:28;;;;;;;3.73;3.63;;;11.60;99.90;;;;;;4997223;28;20196;-79
2023/01/05 02:47:27;;;;;;;3.90;3.70;;;11.60;99.90;;;;;;4995768;28;20211;-80
2023/01/05 02:50:03;;;;;;;4.33;4.23;;;11.50;99.90;;;;;;4977365;28;20220;-80
2023/01/05 02:52:53;;;;;;;4.07;3.97;;;11.50;99.90;;;;;;4977944;28;20191;-81
2023/01/05 02:55:27;;;;;;;4.70;4.60;;;11.50;99.90;;;;;;4976321;28;20204;-80
2023/01/05 02:58:09;;;;;;;5.03;4.83;;;11.50;99.90;;;;;;4979843;28;20180;-79
2023/01/05 03:00:41;;;;;;;3.50;3.40;;;11.50;99.90;;;;;;4992518;28;20198;-80
2023/01/05 03:03:16;;;;;;;3.10;3.10;;;11.50;99.90;;;;;;4996362;28;20186;-80
2023/01/05 03:05:52;;;;;;;3.80;3.60;;;11.40;99.90;;;;;;5015961;28;20207;-78
2023/01/05 03:08:22;;;;;;;4.40;4.30;;;11.50;99.90;;;;;;5013371;28;20222;-80
2023/01/05 03:14:13;;;;;;;11.67;11.17;;;11.50;99.90;;;;;;5005323;28;20181;-81
2023/01/05 03:16:39;;;;;;;14.90;14.30;;;11.50;99.90;;;;;;4997993;28;20196;-81
2023/01/05 03:36:02;;;;;;;18.23;17.50;;;11.50;99.90;;;;;;4996188;28;20208;-77
2023/01/05 03:38:32;;;;;;;20.97;20.07;;;11.50;99.90;;;;;;4981354;28;20187;-79
2023/01/05 03:41:01;;;;;;;22.07;21.17;;;11.50;99.90;;;;;;4996250;28;20251;-80
2023/01/05 03:43:27;;;;;;;20.80;19.93;;;11.50;99.90;;;;;;4981608;28;20231;-80
2023/01/05 03:45:56;;;;;;;21.13;20.27;;;11.50;99.90;;;;;;4979334;28;20200;-79
2023/01/05 03:48:24;;;;;;;19.33;18.53;;;11.50;99.90;;;;;;4995100;28;20204;-79
2023/01/05 03:50:50;;;;;;;15.07;14.37;;;11.50;99.90;;;;;;5012850;28;20180;-79
2023/01/05 03:53:16;;;;;;;19.03;18.13;;;11.50;99.90;;;;;;5012860;28;20234;-79
2023/01/05 03:55:42;;;;;;;15.77;15.07;;;11.40;99.90;;;;;;5018818;28;20195;-79
2023/01/05 03:58:08;;;;;;;16.33;15.63;;;11.50;99.90;;;;;;5003203;28;20528;-79
2023/01/05 04:00:34;;;;;;;17.83;17.03;;;11.50;99.90;;;;;;5003163;28;20258;-79
2023/01/05 04:03:01;;;;;;;19.63;18.80;;;11.50;99.90;;;;;;5004258;28;20227;-79
2023/01/05 04:05:27;;;;;;;21.23;20.33;;;11.60;99.90;;;;;;5003531;28;20699;-78
2023/01/05 04:07:53;;;;;;;19.87;18.97;;;11.50;99.90;;;;;;4986257;28;20187;-79
2023/01/05 04:10:19;;;;;;;11.37;10.97;;;11.50;99.90;;;;;;5001294;28;20202;-79
2023/01/05 04:12:46;;;;;;;9.37;9.07;;;11.50;99.90;;;;;;5020574;28;20218;-79
2023/01/05 04:15:12;;;;;;;16.73;16.03;;;11.40;99.90;;;;;;5007035;28;20219;-78
2023/01/05 04:17:38;;;;;;;7.60;7.23;;;11.30;99.90;;;;;;5012299;28;20199;-80
2023/01/05 04:20:05;;;;;;;10.60;10.20;;;11.20;99.90;;;;;;5024625;28;20196;-79
2023/01/05 04:22:31;;;;;;;4.90;4.67;;;11.10;99.90;;;;;;5024039;28;20190;-80
2023/01/05 04:24:58;;;;;;;4.00;3.90;;;11.00;99.90;;;;;;5021597;28;21002;-80
2023/01/05 04:27:23;;;;;;;4.77;4.67;;;11.00;99.90;;;;;;5002483;28;20175;-79
2023/01/05 04:29:49;;;;;;;5.43;5.23;;;10.90;99.90;;;;;;5020579;28;20218;-80
2023/01/05 04:32:15;;;;;;;5.77;5.57;;;10.90;99.90;;;;;;5026101;28;20179;-81
2023/01/05 04:34:41;;;;;;;7.43;7.20;;;10.80;99.90;;;;;;5015615;28;20191;-80
2023/01/05 04:37:06;;;;;;;6.27;6.07;;;10.80;99.90;;;;;;5031707;28;20211;-80
2023/01/05 04:39:32;;;;;;;4.43;4.33;;;10.80;99.90;;;;;;4983139;28;20188;-81
2023/01/05 04:41:58;;;;;;;7.50;7.27;;;10.80;99.90;;;;;;4991368;28;20223;-81
2023/01/05 04:44:24;;;;;;;9.17;8.77;;;10.70;99.90;;;;;;4990803;28;20194;-80
2023/01/05 04:46:50;;;;;;;8.03;7.63;;;10.70;99.90;;;;;;5013490;28;20232;-81
2023/01/05 04:49:16;;;;;;;14.23;13.63;;;10.70;99.90;;;;;;4991943;28;20362;-81
2023/01/05 04:51:41;;;;;;;60.07;57.23;;;10.70;99.90;;;;;;5001399;28;20181;-80
2023/01/05 04:54:07;;;;;;;39.87;38.00;;;10.70;99.90;;;;;;5001665;28;20183;-82
2023/01/05 04:56:33;;;;;;;81.57;77.60;;;10.70;99.90;;;;;;4995961;28;20204;-83
2023/01/05 04:58:59;;;;;;;81.23;77.13;;;10.70;99.90;;;;;;4999957;28;20218;-81
2023/01/05 05:01:25;;;;;;;52.73;50.23;;;10.70;99.90;;;;;;5009931;28;20187;-82
2023/01/05 05:03:51;;;;;;;66.50;63.33;;;10.70;99.90;;;;;;4990867;28;20185;-80
2023/01/05 05:06:19;;;;;;;46.20;44.00;;;10.70;99.90;;;;;;5007733;28;20200;-82
2023/01/05 05:08:45;;;;;;;61.47;58.60;;;10.70;99.90;;;;;;5008009;28;20235;-82
2023/01/05 05:11:10;;;;;;;37.03;35.33;;;10.70;99.90;;;;;;5023162;28;20199;-82
2023/01/05 05:13:36;;;;;;;29.03;27.77;;;10.70;99.90;;;;;;5009068;28;20589;-82
2023/01/05 05:16:02;;;;;;;24.07;22.80;;;10.60;99.90;;;;;;5006222;28;20687;-83
2023/01/05 05:18:28;;;;;;;20.93;20.07;;;10.60;99.90;;;;;;5004790;28;20251;-81
2023/01/05 05:20:53;;;;;;;20.40;19.50;;;10.60;99.90;;;;;;5009285;28;20179;-81
2023/01/05 05:23:19;;;;;;;21.83;20.77;;;10.60;99.90;;;;;;5012915;28;20194;-80
2023/01/05 05:25:49;;;;;;;21.00;20.03;;;10.60;99.90;;;;;;5018150;28;20226;-84
2023/01/05 05:28:14;;;;;;;17.10;16.37;;;10.50;99.90;;;;;;5008446;28;20375;-84
2023/01/05 05:30:40;;;;;;;16.53;15.83;;;10.50;99.90;;;;;;5010247;28;20188;-82
2023/01/05 05:33:06;;;;;;;19.63;18.53;;;10.50;99.90;;;;;;5000085;28;20185;-82
2023/01/05 05:35:32;;;;;;;22.57;21.57;;;10.50;99.90;;;;;;5012793;28;20196;-80
2023/01/05 05:37:58;;;;;;;18.07;17.27;;;10.50;99.90;;;;;;5015336;28;20195;-84
2023/01/05 05:40:25;;;;;;;6.63;6.43;;;10.50;99.90;;;;;;5032201;28;20191;-83
2023/01/05 05:42:51;;;;;;;5.73;5.43;;;10.40;99.90;;;;;;5013630;28;20183;-85
2023/01/05 05:45:17;;;;;;;11.63;10.93;;;10.40;99.90;;;;;;5008103;28;20263;-83
2023/01/05 05:47:43;;;;;;;18.47;17.63;;;10.40;99.90;;;;;;4996291;28;20180;-81
2023/01/05 05:50:09;;;;;;;19.47;18.53;;;10.40;99.90;;;;;;5012020;28;20213;-82
2023/01/05 05:52:34;;;;;;;12.97;12.37;;;10.50;99.90;;;;;;5014084;28;20553;-81
2023/01/05 05:55:00;;;;;;;10.33;9.93;;;10.50;99.90;;;;;;5013299;28;20209;-82
2023/01/05 05:57:26;;;;;;;7.63;7.30;;;10.50;99.90;;;;;;5011444;28;20215;-81
2023/01/05 05:59:52;;;;;;;5.27;4.97;;;10.50;99.90;;;;;;5013189;28;20656;-83
2023/01/05 06:02:18;;;;;;;6.57;6.13;;;10.50;99.90;;;;;;5013710;28;20180;-82
2023/01/05 06:04:44;;;;;;;7.63;7.13;;;10.50;99.90;;;;;;5021295;28;20176;-83
2023/01/05 06:07:11;;;;;;;6.73;6.40;;;10.50;99.90;;;;;;5020434;28;20240;-81
2023/01/05 06:09:37;;;;;;;19.77;18.87;;;10.50;99.90;;;;;;5020419;28;20254;-86
2023/01/05 06:12:03;;;;;;;19.70;18.77;;;10.50;99.90;;;;;;5016004;28;20184;-82
2023/01/05 06:14:29;;;;;;;21.97;20.97;;;10.50;99.90;;;;;;5015427;28;20183;-81
2023/01/05 06:16:54;;;;;;;62.60;59.57;;;10.50;99.90;;;;;;5014075;28;20246;-81
2023/01/05 06:19:20;;;;;;;14.90;14.17;;;10.60;99.90;;;;;;5020899;28;20545;-80
2023/01/05 06:21:46;;;;;;;4.80;4.63;;;10.50;99.90;;;;;;4990180;28;20189;-68
2023/01/05 06:24:11;;;;;;;8.27;7.93;;;10.60;99.90;;;;;;4992141;28;20230;-68
2023/01/05 06:26:37;;;;;;;6.17;5.70;;;10.60;99.90;;;;;;4973935;28;20215;-70
2023/01/05 06:29:03;;;;;;;18.23;17.37;;;10.60;99.90;;;;;;4991566;28;20207;-71
2023/01/05 06:31:29;;;;;;;24.60;23.40;;;10.60;99.90;;;;;;5003019;28;20233;-68
2023/01/05 06:33:54;;;;;;;33.00;31.33;;;10.60;99.90;;;;;;5011345;28;20175;-68
2023/01/05 06:36:20;;;;;;;13.77;12.97;;;10.70;99.90;;;;;;5011537;28;20208;-69
2023/01/05 06:38:46;;;;;;;25.30;23.90;;;10.70;99.90;;;;;;5010386;28;20183;-69
2023/01/05 06:41:12;;;;;;;22.87;21.57;;;10.70;99.90;;;;;;4992547;28;20188;-69
2023/01/05 06:43:37;;;;;;;15.03;14.03;;;10.70;99.90;;;;;;5010981;28;20191;-69
2023/01/05 06:46:03;;;;;;;46.07;43.80;;;10.70;99.90;;;;;;4977993;28;20685;-70
2023/01/05 06:48:29;;;;;;;38.73;36.57;;;10.70;99.90;;;;;;4972470;28;20299;-74
2023/01/05 06:50:56;;;;;;;41.43;39.23;;;10.60;99.90;;;;;;4991456;28;20657;-74
2023/01/05 06:53:22;;;;;;;52.80;50.20;;;10.50;99.90;;;;;;4974348;28;20737;-75
2023/01/05 06:55:48;;;;;;;105.43;99.80;;;10.40;99.90;;;;;;4990755;28;20303;-74
2023/01/05 06:58:14;;;;;;;10.93;10.23;;;10.40;99.90;;;;;;4989321;28;20259;-73
2023/01/05 07:00:40;;;;;;;10.50;9.97;;;10.30;99.90;;;;;;5010855;28;20183;-74
2023/01/05 07:03:06;;;;;;;18.27;17.23;;;10.30;99.90;;;;;;4992604;28;20183;-74
2023/01/05 07:05:32;;;;;;;11.03;10.30;;;10.30;99.90;;;;;;4992747;28;20612;-73
2023/01/05 07:07:58;;;;;;;11.30;10.57;;;10.30;99.90;;;;;;4990108;28;20641;-73
2023/01/05 07:10:24;;;;;;;15.27;14.47;;;10.30;99.90;;;;;;4980804;28;20272;-74
2023/01/05 07:12:50;;;;;;;10.60;9.90;;;10.30;99.90;;;;;;4984279;28;20560;-75
2023/01/05 07:15:16;;;;;;;8.10;7.67;;;10.30;99.90;;;;;;5009049;28;20696;-73
2023/01/05 07:17:41;;;;;;;9.00;8.30;;;10.20;99.90;;;;;;5009634;28;20621;-73
2023/01/05 07:20:07;;;;;;;9.57;9.07;;;10.30;99.90;;;;;;5010747;28;20199;-73
2023/01/05 07:22:33;;;;;;;8.73;8.03;;;10.30;99.90;;;;;;5011001;28;20179;-73
2023/01/05 07:24:59;;;;;;;9.60;8.70;;;10.30;99.90;;;;;;4992642;28;20299;-74
2023/01/05 07:27:25;;;;;;;12.23;11.27;;;10.30;99.90;;;;;;5000646;28;20315;-74
2023/01/05 07:29:50;;;;;;;8.20;7.40;;;10.20;99.90;;;;;;4990859;28;20212;-73
2023/01/05 07:32:16;;;;;;;11.63;10.83;;;10.20;99.90;;;;;;4990740;28;20656;-73
2023/01/05 07:34:42;;;;;;;25.50;8.80;;;10.30;99.90;;;;;;4991304;28;20176;-74
2023/01/05 07:37:08;;;;;;;9.03;8.43;;;10.20;99.90;;;;;;4973150;28;20309;-75
2023/01/05 07:39:33;;;;;;;9.23;8.50;;;10.30;99.90;;;;;;4979777;28;20191;-74
2023/01/05 07:41:59;;;;;;;9.87;9.13;;;10.20;99.90;;;;;;4990776;28;20188;-74
2023/01/05 07:44:25;;;;;;;9.27;8.60;;;10.30;99.90;;;;;;4976880;28;20195;-74
2023/01/05 07:46:51;;;;;;;11.50;10.53;;;10.20;99.90;;;;;;4989735;28;20581;-74
2023/01/05 07:49:17;;;;;;;15.80;14.80;;;10.30;99.90;;;;;;4974029;28;20216;-75
2023/01/05 07:51:42;;;;;;;14.60;13.70;;;10.30;99.90;;;;;;4974705;28;20322;-73
2023/01/05 07:54:08;;;;;;;11.27;10.60;;;10.30;99.90;;;;;;4991588;28;20188;-75
2023/01/05 07:56:34;;;;;;;10.67;9.73;;;10.30;99.90;;;;;;4994264;28;20234;-74
2023/01/05 07:59:00;;;;;;;46.67;44.27;;;10.40;99.90;;;;;;4990445;28;20264;-74
2023/01/05 08:01:26;;;;;;;56.60;53.47;;;10.40;99.90;;;;;;4992496;28;20215;-75
2023/01/05 08:03:52;;;;;;;8.10;7.50;;;10.40;99.90;;;;;;5000409;28;20559;-73
2023/01/05 08:06:19;;;;;;;18.50;16.87;;;10.50;99.90;;;;;;4993030;28;20196;-76
2023/01/05 08:08:45;;;;;;;30.57;28.70;;;10.50;99.90;;;;;;5008554;28;20320;-75
2023/01/05 08:11:15;;;;;;;42.37;39.80;;;10.40;99.90;;;;;;5009319;28;20176;-76
2023/01/05 08:13:58;;;;;;;54.83;52.03;;;10.50;99.90;;;;;;4993058;28;20224;-76
2023/01/05 08:16:28;;;;;;;51.83;48.97;;;10.50;99.90;;;;;;5009826;28;20258;-75
2023/01/05 08:18:55;;;;;;;28.17;26.17;;;10.50;99.90;;;;;;5009961;28;20196;-76
2023/01/05 08:21:20;;;;;;;17.07;15.93;;;10.50;99.90;;;;;;4993063;28;20203;-76
2023/01/05 08:23:46;;;;;;;13.90;12.90;;;10.60;99.90;;;;;;5003444;28;20230;-77
2023/01/05 08:26:17;;;;;;;9.37;8.67;;;10.60;99.90;;;;;;4991058;28;20240;-75
2023/01/05 08:28:44;;;;;;;9.07;5.73;;;10.70;99.90;;;;;;5003813;28;20231;-76
2023/01/05 08:31:36;;;;;;;5.83;5.33;;;10.70;99.90;;;;;;4991582;28;20175;-73
2023/01/05 08:34:03;;;;;;;13.20;5.27;;;10.70;99.90;;;;;;4987588;28;20188;-75
2023/01/05 08:36:32;;;;;;;6.37;5.97;;;10.70;99.90;;;;;;4990543;28;20192;-74
2023/01/05 08:39:00;;;;;;;6.70;6.03;;;10.80;99.90;;;;;;5004510;28;20553;-73
2023/01/05 08:41:36;;;;;;;10.53;7.23;;;10.80;99.90;;;;;;5009722;28;20188;-75
2023/01/05 08:44:09;;;;;;;8.10;7.37;;;10.80;99.90;;;;;;5009930;28;20188;-74
2023/01/05 08:46:36;;;;;;;15.03;14.17;;;10.80;99.90;;;;;;5009793;28;20203;-75
2023/01/05 08:49:04;;;;;;;20.37;18.97;;;10.80;99.90;;;;;;4990108;28;20639;-76
2023/01/05 08:51:30;;;;;;;36.23;34.40;;;10.90;99.90;;;;;;4972865;28;20181;-74
2023/01/05 08:53:57;;;;;;;48.47;45.67;;;10.90;99.90;;;;;;4974906;28;20177;-75
2023/01/05 08:56:25;;;;;;;41.70;39.53;;;10.90;99.90;;;;;;4994322;28;20201;-75
2023/01/05 08:58:51;;;;;;;10.53;9.73;;;10.90;99.90;;;;;;4992724;28;20602;-74
2023/01/05 09:01:19;;;;;;;8.70;6.23;;;11.00;99.90;;;;;;4993441;28;20191;-75
2023/01/05 09:03:45;;;;;;;18.63;17.20;;;11.00;99.90;;;;;;5002087;28;20179;-75
2023/01/05 09:06:12;;;;;;;13.67;12.67;;;11.10;99.90;;;;;;5003170;28;20267;-74
2023/01/05 09:08:40;;;;;;;10.40;7.03;;;11.10;99.90;;;;;;4992097;28;20291;-74
2023/01/05 09:11:10;;;;;;;9.53;8.63;;;11.10;99.90;;;;;;4993691;28;20184;-74
2023/01/05 09:13:37;;;;;;;9.70;9.00;;;11.10;99.90;;;;;;4994016;28;20272;-74
2023/01/05 09:16:07;;;;;;;13.17;11.83;;;11.10;99.90;;;;;;4977251;28;20254;-76
2023/01/05 09:18:34;;;;;;;12.50;11.63;;;11.10;99.90;;;;;;4976873;28;20192;-76
2023/01/05 09:21:00;;;;;;;56.80;53.50;;;11.10;99.90;;;;;;4976254;28;20214;-76
2023/01/05 09:23:26;;;;;;;89.60;84.67;;;11.10;99.90;;;;;;4993875;28;20742;-77
2023/01/05 09:25:51;;;;;;;83.70;79.23;;;11.10;99.90;;;;;;4997069;28;20219;-78
2023/01/05 09:28:17;;;;;;;84.73;79.93;;;11.10;99.90;;;;;;5024634;28;20198;-77
2023/01/05 09:30:43;;;;;;;60.97;57.80;;;11.20;99.90;;;;;;5026435;28;20183;-77
2023/01/05 09:33:09;;;;;;;55.97;52.73;;;11.20;99.90;;;;;;5023352;28;20183;-78
2023/01/05 09:35:34;;;;;;;13.57;9.50;;;11.20;99.90;;;;;;4995328;28;20759;-76
2023/01/05 09:38:00;;;;;;;7.67;7.00;;;11.30;99.90;;;;;;4993942;28;20211;-75
2023/01/05 09:40:27;;;;;;;7.67;7.00;;;11.30;99.90;;;;;;5012807;28;20179;-77
2023/01/05 09:42:53;;;;;;;8.13;7.37;;;11.30;99.90;;;;;;5013019;28;20188;-77
2023/01/05 09:45:26;;;;;;;9.27;8.47;;;11.40;99.90;;;;;;5012149;28;20302;-76
2023/01/05 09:47:54;;;;;;;9.13;8.03;;;11.40;99.90;;;;;;5006778;28;20246;-78
2023/01/05 09:50:24;;;;;;;7.60;6.90;;;11.50;99.90;;;;;;4994913;28;20235;-77
2023/01/05 09:52:56;;;;;;;6.30;5.07;;;11.50;99.90;;;;;;4992556;28;20181;-77
2023/01/05 09:55:25;;;;;;;8.83;4.77;;;11.50;99.90;;;;;;4975889;28;20305;-77
2023/01/05 09:58:05;;;;;;;8.13;4.90;;;11.60;99.90;;;;;;4983316;28;20192;-76
2023/01/05 10:00:32;;;;;;;7.07;5.93;;;11.70;99.90;;;;;;4994627;28;20191;-77
2023/01/05 10:03:12;;;;;;;9.20;8.40;;;11.70;99.90;;;;;;4994536;28;20187;-78
2023/01/05 10:05:41;;;;;;;8.43;7.73;;;11.60;99.90;;;;;;4997755;28;20215;-78
2023/01/05 10:08:15;;;;;;;9.57;8.17;;;11.70;99.90;;;;;;5013409;28;20237;-77
2023/01/05 10:13:01;;;;;;;21.10;19.50;;;11.70;99.90;;;;;;5015399;28;20241;-79
2023/01/05 10:13:36;;;;;;;26.20;24.37;;;11.70;99.90;;;;;;5012774;28;20176;-78
2023/01/05 10:16:02;;;;;;;30.47;28.67;;;11.60;99.90;;;;;;4995349;28;20232;-78
2023/01/05 10:18:30;;;;;;;35.10;32.73;;;11.50;99.90;;;;;;4976942;28;20187;-78
2023/01/05 10:21:04;;;;;;;34.03;31.83;;;11.60;99.90;;;;;;4993208;28;20789;-77
2023/01/05 10:23:33;;;;;;;30.43;28.33;;;11.70;99.90;;;;;;4977650;28;20192;-78
2023/01/05 10:26:25;;;;;;;37.53;34.80;;;11.70;99.90;;;;;;4976374;28;20215;-78
2023/01/05 10:28:59;;;;;;;41.53;38.47;;;11.60;99.90;;;;;;4981825;28;20227;-77
2023/01/05 10:31:45;;;;;;;40.13;37.40;;;11.50;99.90;;;;;;4975767;28;20206;-75
2023/01/05 10:34:21;;;;;;;39.07;36.10;;;11.50;99.90;;;;;;4990327;28;20180;-76
2023/01/05 10:36:59;;;;;;;37.27;34.53;;;11.50;99.90;;;;;;5011352;28;20211;-75
2023/01/05 10:39:51;;;;;;;33.57;31.50;;;11.50;99.90;;;;;;4994511;28;20185;-76
2023/01/05 10:42:33;;;;;;;20.77;18.80;;;11.60;99.90;;;;;;4977801;28;20192;-76
2023/01/05 10:45:03;;;;;;;29.50;27.27;;;11.50;99.90;;;;;;4994360;28;20269;-76
2023/01/05 10:47:34;;;;;;;42.07;38.77;;;11.50;99.90;;;;;;4980986;28;20612;-76
2023/01/05 10:50:02;;;;;;;36.27;33.57;;;11.60;99.90;;;;;;4992687;28;20278;-76
2023/01/05 10:52:28;;;;;;;37.20;34.73;;;11.70;99.90;;;;;;4995782;28;20180;-73
2023/01/05 10:55:00;;;;;;;30.23;28.10;;;11.80;99.90;;;;;;4992160;28;20192;-73
2023/01/05 10:57:29;;;;;;;23.10;21.00;;;11.90;99.90;;;;;;4974159;28;20185;-73
2023/01/05 10:59:58;;;;;;;22.93;20.87;;;11.90;99.90;;;;;;5004430;28;20187;-74
2023/01/05 11:02:27;;;;;;;16.73;15.37;;;11.90;99.90;;;;;;5006188;28;20195;-74
2023/01/05 11:05:01;;;;;;;11.93;10.63;;;11.90;99.90;;;;;;4995786;28;20187;-73
2023/01/05 11:07:27;;;;;;;17.07;12.80;;;11.90;99.90;;;;;;4991121;28;20184;-75
2023/01/05 11:09:54;;;;;;;16.73;9.73;;;11.90;99.90;;;;;;4988013;28;20223;-73
2023/01/05 11:12:24;;;;;;;12.73;7.57;;;11.90;99.90;;;;;;5011267;28;20738;-74
2023/01/05 11:14:53;;;;;;;11.83;6.53;;;11.80;99.90;;;;;;4993364;28;20188;-77
2023/01/05 11:17:22;;;;;;;10.07;6.37;;;11.90;99.90;;;;;;4971912;28;20676;-77
2023/01/05 11:19:54;;;;;;;9.20;5.70;;;12.00;99.90;;;;;;4973549;28;20180;-77
2023/01/05 11:22:38;;;;;;;12.13;5.27;;;12.10;99.90;;;;;;4976227;28;20672;-78
2023/01/05 11:25:27;;;;;;;14.23;5.37;;;12.20;99.90;;;;;;4975721;28;20255;-79
2023/01/05 11:28:10;;;;;;;7.67;4.90;;;12.20;99.90;;;;;;5007563;23;20663;-74
2023/01/05 11:30:57;;;;;;;11.17;5.63;;;12.30;99.90;;;;;;4975514;28;20311;-73
2023/01/05 11:33:25;;;;;;;8.30;5.40;;;12.30;99.90;;;;;;4986851;28;20280;-73
2023/01/05 11:35:51;;;;;;;5.57;4.90;;;12.20;99.90;;;;;;5002312;28;20756;-74
2023/01/05 11:38:24;;;;;;;9.97;5.53;;;12.20;99.90;;;;;;4970818;28;20200;-75
2023/01/05 11:40:50;;;;;;;9.87;6.13;;;12.20;99.90;;;;;;4971711;28;20192;-76
2023/01/05 11:43:19;;;;;;;12.97;6.20;;;12.20;99.90;;;;;;4971285;28;20180;-75
2023/01/05 11:45:54;;;;;;;13.00;6.33;;;12.20;99.90;;;;;;4972085;28;20185;-75
2023/01/05 11:48:24;;;;;;;13.97;8.17;;;12.20;99.90;;;;;;4954787;28;20205;-75
2023/01/05 11:50:52;;;;;;;13.87;9.17;;;12.20;99.90;;;;;;4964997;28;20189;-75
2023/01/05 11:53:34;;;;;;;8.53;7.40;;;12.10;99.90;;;;;;4970307;28;20229;-75
2023/01/05 11:56:23;;;;;;;14.23;6.50;;;12.00;99.90;;;;;;4971850;28;20232;-75
2023/01/05 11:58:53;;;;;;;11.03;9.87;;;12.00;99.90;;;;;;4970123;28;20596;-75
2023/01/05 12:01:37;;;;;;;12.97;10.30;;;12.00;99.90;;;;;;4971307;28;20190;-74
2023/01/05 12:04:06;;;;;;;9.77;8.87;;;11.90;99.90;;;;;;4971380;28;20227;-76
2023/01/05 12:07:05;;;;;;;12.07;10.23;;;11.90;99.90;;;;;;4968854;28;20215;-76
2023/01/05 12:10:01;;;;;;;15.50;9.93;;;11.90;99.90;;;;;;4971115;28;20307;-76
2023/01/05 12:12:48;;;;;;;11.77;8.83;;;12.00;99.90;;;;;;4971702;28;20217;-75
2023/01/05 12:15:29;;;;;;;11.37;10.23;;;12.00;99.90;;;;;;4969969;28;20237;-75
2023/01/05 12:18:28;;;;;;;15.77;11.90;;;12.00;99.90;;;;;;4970056;28;20218;-75
2023/01/05 12:21:12;;;;;;;12.30;11.10;;;12.00;99.90;;;;;;4951123;28;20188;-75
2023/01/05 12:24:11;;;;;;;13.17;10.73;;;12.00;99.90;;;;;;4975027;28;20194;-77
2023/01/05 12:26:49;;;;;;;12.17;11.07;;;11.90;99.90;;;;;;4964939;28;20235;-77
2023/01/05 12:29:18;;;;;;;12.90;11.67;;;11.90;99.90;;;;;;4981165;28;20215;-77
2023/01/05 12:32:09;;;;;;;14.20;12.73;;;11.90;99.90;;;;;;4975095;28;20201;-76
2023/01/05 12:34:57;;;;;;;13.53;11.27;;;11.80;99.90;;;;;;4989142;28;20196;-76
2023/01/05 12:37:50;;;;;;;12.50;11.07;;;11.70;99.90;;;;;;4974505;28;20196;-77
2023/01/05 12:40:39;;;;;;;15.13;11.83;;;11.70;99.90;;;;;;4974526;28;20215;-76
2023/01/05 12:43:14;;;;;;;13.20;11.83;;;11.60;99.90;;;;;;4983045;28;20577;-76
2023/01/05 12:46:10;;;;;;;10.90;9.90;;;11.60;99.90;;;;;;4979816;28;20581;-76
2023/01/05 12:48:58;;;;;;;15.83;9.97;;;11.60;99.90;;;;;;4974815;28;20565;-76
2023/01/05 12:51:42;;;;;;;11.00;9.53;;;11.60;99.90;;;;;;4974307;28;20240;-75
2023/01/05 12:54:19;;;;;;;7.57;6.87;;;11.60;99.90;;;;;;4978681;28;20209;-75
2023/01/05 12:56:56;;;;;;;12.27;7.50;;;11.60;99.90;;;;;;4976738;28;20201;-77
2023/01/05 12:59:44;;;;;;;9.43;5.10;;;11.50;99.90;;;;;;4974972;28;20195;-75
2023/01/05 13:02:34;;;;;;;8.63;5.63;;;11.50;99.90;;;;;;4973298;28;20733;-75
2023/01/05 13:05:21;;;;;;;16.63;6.07;;;11.50;99.90;;;;;;4971552;28;20203;-76
2023/01/05 13:08:02;;;;;;;11.50;5.73;;;11.50;99.90;;;;;;4973812;28;20624;-76
2023/01/05 13:10:35;;;;;;;15.17;6.57;;;11.40;99.90;;;;;;4972804;28;20217;-76
2023/01/05 13:13:13;;;;;;;12.00;6.07;;;11.40;99.90;;;;;;4974310;28;20267;-76
2023/01/05 13:15:54;;;;;;;9.33;5.60;;;11.50;99.90;;;;;;4974574;28;20196;-76
2023/01/05 13:18:23;;;;;;;9.43;5.50;;;11.40;99.90;;;;;;4973515;28;20206;-76
2023/01/05 13:20:57;;;;;;;7.17;5.80;;;11.50;99.90;;;;;;4974178;28;20288;-76
2023/01/05 13:23:47;;;;;;;10.97;6.37;;;11.50;99.90;;;;;;4973924;28;20188;-77